Marion, IA (52302)

12:01 AM CDT on April 27, 2017 (GMT -0500)
| | Change Station

Elev -9999 ft 0.00 °N, 0.00 °E | Updated 6 minutes ago

Rain
Rain
°F
Feels Like °F
N
Wind Variable Wind from North
Gusts mph

Today
High -- | Low -- °F
--% Chance of Precip.
Yesterday
High -- | Low -- °F
Precip. -- in
Pressure 29.53 in
Visibility 7.0 miles
Clouds Mostly Cloudy 1900 ft
Mostly Cloudy 2700 ft
Overcast 6500 ft
Dew Point Not available.
Humidity Not available.
Rainfall --
Snow Depth Not available.
6:07 AM 8:01 PM
New Moon, 1% visible
METAR KCID 270452Z AUTO 32013KT 7SM -RA BKN019 BKN027 OVC065 05/05 A2952 RMK AO2 SLP998 P0005 T00500050
Pressure 29.53 in
Visibility 7.0 miles
Clouds Mostly Cloudy 1900 ft
Mostly Cloudy 2700 ft
Overcast 6500 ft
Dew Point Not available.
Humidity Not available.
Rainfall --
Snow Depth Not available.
6:07 AM 8:01 PM
New Moon, 1% visible
METAR KCID 270452Z AUTO 32013KT 7SM -RA BKN019 BKN027 OVC065 05/05 A2952 RMK AO2 SLP998 P0005 T00500050

Get Severe Weather Alerts

Thanks for signing up!

Be on the lookout for a verification email in your inbox.

You'll start receiving the daily forecast at 8 AM.

×

10-Day Weather Forecast

Almanac

Astronomy

Apr. 27, 2017 Rise Set
Actual Time
Civil Twilight
Nautical Twilight
Astronomical Twilight
Moon
Length of Visible Light
Length of Day
Tomorrow will be .
, % of the Moon is Illuminated

Today's Extremes

State Highs State Lows

Community

WunderPhotos

WunderBlog® & News

Nearby

Air Quality

  Air Quality AQ Index Pollutant
Not available.

Snow Depth

Station Depth Elevation

Earthquake Activity

City Distance Mag. Time & Date
Minimum magnitude displayed is 2.5.

Coastal Water Temperatures

Place Temperature

Stations

Nearby Weather Stations

Station Location Temp. Windchill Dew Point Humidity Wind Precip. Elev Updated Type
                   

Watches & Warnings

There are currently no watches in effect.